createdAt,value
2023-02-19T00:00:53.490Z,22.5
2023-02-19T00:01:57.812Z,22.5
2023-02-19T00:03:02.090Z,22.49
2023-02-19T00:04:06.334Z,22.52
2023-02-19T00:05:10.679Z,22.51
2023-02-19T00:06:15.175Z,22.52
2023-02-19T00:07:19.501Z,22.5
2023-02-19T00:08:23.786Z,22.5
2023-02-19T00:09:28.070Z,22.49
2023-02-19T00:10:32.332Z,22.48
2023-02-19T00:11:36.609Z,22.5
2023-02-19T00:12:41.091Z,22.48
2023-02-19T00:13:45.336Z,22.5
2023-02-19T00:14:49.601Z,22.51
2023-02-19T00:15:53.877Z,22.53
2023-02-19T00:16:58.319Z,22.55
2023-02-19T00:18:02.586Z,22.54
2023-02-19T00:19:06.879Z,22.51
2023-02-19T00:20:11.166Z,22.49
2023-02-19T00:21:15.411Z,22.48
2023-02-19T00:22:19.671Z,22.51
2023-02-19T00:23:23.904Z,22.48
2023-02-19T00:24:28.241Z,22.43
2023-02-19T00:25:32.482Z,22.41
2023-02-19T00:26:36.731Z,22.43
2023-02-19T00:27:41.040Z,22.38
2023-02-19T00:28:45.303Z,22.37
2023-02-19T00:29:49.624Z,22.34
2023-02-19T00:30:53.899Z,22.33
2023-02-19T00:31:58.540Z,22.32
2023-02-19T00:33:03.197Z,22.29
2023-02-19T00:34:07.465Z,22.25
2023-02-19T00:35:11.726Z,22.26
2023-02-19T00:36:15.982Z,22.28
2023-02-19T00:37:20.213Z,22.26
2023-02-19T00:38:24.487Z,22.24
2023-02-19T00:39:28.743Z,22.22
2023-02-19T00:40:33.032Z,22.19
2023-02-19T00:41:37.309Z,22.24
2023-02-19T00:42:41.665Z,22.28
2023-02-19T00:43:45.963Z,22.26
2023-02-19T00:44:50.290Z,22.32
2023-02-19T00:45:54.634Z,22.31
2023-02-19T00:46:58.982Z,22.32
2023-02-19T00:48:03.261Z,22.31
2023-02-19T00:49:07.515Z,22.3
2023-02-19T00:50:11.765Z,22.31
2023-02-19T00:51:16.052Z,22.26
2023-02-19T00:52:20.347Z,22.23
2023-02-19T00:53:24.640Z,22.25
2023-02-19T00:54:28.919Z,22.24
2023-02-19T00:55:33.166Z,22.25
2023-02-19T00:56:37.408Z,22.23
2023-02-19T00:57:41.652Z,22.23
2023-02-19T00:58:45.911Z,22.2
2023-02-19T00:59:50.185Z,22.23
2023-02-19T01:00:54.424Z,22.22
2023-02-19T01:01:58.741Z,22.21
2023-02-19T01:03:03.064Z,22.2
2023-02-19T01:04:07.326Z,22.21
2023-02-19T01:05:11.623Z,22.21
2023-02-19T01:06:15.892Z,22.2
2023-02-19T01:07:20.186Z,22.15
2023-02-19T01:08:24.486Z,22.13
2023-02-19T01:09:28.746Z,22.12
2023-02-19T01:10:33.044Z,22.11
2023-02-19T01:11:37.337Z,22.06
2023-02-19T01:12:41.581Z,22.1
2023-02-19T01:13:45.846Z,22.13
2023-02-19T01:14:50.226Z,22.13
2023-02-19T01:15:54.573Z,22.12
2023-02-19T01:16:58.952Z,22.14
2023-02-19T01:18:03.191Z,22.07
2023-02-19T01:19:07.475Z,22.1
2023-02-19T01:20:11.736Z,22.13
2023-02-19T01:21:15.983Z,22.13
2023-02-19T01:22:20.227Z,22.13
2023-02-19T01:23:24.519Z,22.12
2023-02-19T01:24:28.769Z,22.11
2023-02-19T01:25:33.043Z,22.11
2023-02-19T01:26:37.327Z,22.08
2023-02-19T01:27:41.569Z,22.01
2023-02-19T01:28:45.858Z,21.98
2023-02-19T01:29:50.125Z,21.96
2023-02-19T01:30:54.402Z,22.02
2023-02-19T01:31:58.869Z,22.06
2023-02-19T01:33:03.592Z,22.09
2023-02-19T01:34:07.886Z,22.03
2023-02-19T01:35:12.121Z,22
2023-02-19T01:36:16.383Z,22.02
2023-02-19T01:37:20.691Z,22.01
2023-02-19T01:38:24.950Z,22
2023-02-19T01:39:29.209Z,21.97
2023-02-19T01:40:33.453Z,21.96
2023-02-19T01:41:37.738Z,22
2023-02-19T01:42:42.032Z,21.99
2023-02-19T01:43:46.283Z,21.98
2023-02-19T01:44:50.568Z,21.99
2023-02-19T01:45:54.783Z,21.99
2023-02-19T01:46:59.168Z,21.98
2023-02-19T01:48:03.408Z,21.96
2023-02-19T01:49:07.688Z,21.94
2023-02-19T01:50:11.981Z,21.94
2023-02-19T01:51:16.245Z,21.92
2023-02-19T01:52:20.490Z,21.91
2023-02-19T01:53:24.752Z,21.91
2023-02-19T01:54:28.987Z,21.93
2023-02-19T01:55:33.311Z,21.89
2023-02-19T01:56:37.559Z,21.91
2023-02-19T01:57:42.049Z,21.92
2023-02-19T01:58:46.343Z,21.91
2023-02-19T01:59:50.595Z,21.89
2023-02-19T02:00:54.853Z,21.93
2023-02-19T02:01:59.420Z,21.91
2023-02-19T02:03:03.859Z,21.89
2023-02-19T02:04:08.134Z,21.87
2023-02-19T02:05:12.384Z,21.9
2023-02-19T02:06:17.656Z,21.92
2023-02-19T02:07:21.927Z,21.88
2023-02-19T02:08:26.184Z,21.91
2023-02-19T02:09:30.461Z,21.93
2023-02-19T02:10:34.754Z,21.9
2023-02-19T02:11:38.993Z,21.86
2023-02-19T02:12:43.214Z,21.85
2023-02-19T02:13:47.500Z,21.87
2023-02-19T02:14:51.743Z,21.88
2023-02-19T02:15:56.056Z,21.89
2023-02-19T02:17:00.395Z,21.85
2023-02-19T02:18:04.636Z,21.84
2023-02-19T02:19:08.985Z,21.8
2023-02-19T02:20:13.318Z,21.8
2023-02-19T02:21:17.666Z,21.78
2023-02-19T02:22:21.934Z,21.82
2023-02-19T02:23:26.172Z,21.79
2023-02-19T02:24:30.456Z,21.79
2023-02-19T02:25:34.703Z,21.78
2023-02-19T02:26:38.988Z,21.79
2023-02-19T02:27:43.258Z,21.78
2023-02-19T02:28:47.555Z,21.79
2023-02-19T02:29:51.792Z,21.77
2023-02-19T02:30:56.076Z,21.78
2023-02-19T02:32:00.801Z,21.78
2023-02-19T02:33:05.519Z,21.78
2023-02-19T02:34:09.776Z,21.76
2023-02-19T02:35:14.078Z,21.76
2023-02-19T02:36:18.352Z,21.79
2023-02-19T02:37:22.616Z,21.79
2023-02-19T02:38:26.905Z,21.77
2023-02-19T02:39:31.161Z,21.8
2023-02-19T02:40:35.416Z,21.79
2023-02-19T02:41:39.677Z,21.79
2023-02-19T02:42:43.929Z,21.78
2023-02-19T02:43:48.210Z,21.76
2023-02-19T02:44:52.453Z,21.74
2023-02-19T02:45:56.773Z,21.78
2023-02-19T02:47:01.111Z,21.75
2023-02-19T02:48:05.424Z,21.75
2023-02-19T02:49:09.716Z,21.78
2023-02-19T02:50:13.973Z,21.78
2023-02-19T02:51:18.227Z,21.77
2023-02-19T02:52:22.615Z,21.75
2023-02-19T02:53:26.899Z,21.77
2023-02-19T02:54:31.168Z,21.76
2023-02-19T02:55:35.450Z,21.75
2023-02-19T02:56:39.845Z,21.77
2023-02-19T02:57:44.085Z,21.75
2023-02-19T02:58:48.335Z,21.76
2023-02-19T02:59:52.596Z,21.78
2023-02-19T03:00:56.920Z,21.76
2023-02-19T03:02:01.346Z,21.73
2023-02-19T03:03:05.760Z,21.74
2023-02-19T03:04:10.038Z,21.75
2023-02-19T03:05:14.315Z,21.78
2023-02-19T03:06:18.590Z,21.79
2023-02-19T03:07:22.860Z,21.79
2023-02-19T03:08:27.108Z,21.81
2023-02-19T03:09:31.386Z,21.85
2023-02-19T03:10:35.633Z,21.81
2023-02-19T03:11:39.886Z,21.8
2023-02-19T03:12:44.174Z,21.8
2023-02-19T03:13:48.436Z,21.78
2023-02-19T03:14:52.725Z,21.8
2023-02-19T03:15:57.008Z,21.8
2023-02-19T03:17:02.304Z,21.81
2023-02-19T03:18:06.559Z,21.8
2023-02-19T03:19:10.786Z,21.78
2023-02-19T03:20:15.128Z,21.77
2023-02-19T03:21:19.395Z,21.75
2023-02-19T03:22:23.668Z,21.74
2023-02-19T03:23:27.929Z,21.73
2023-02-19T03:24:32.213Z,21.72
2023-02-19T03:25:36.469Z,21.7
2023-02-19T03:26:40.738Z,21.7
2023-02-19T03:27:45.008Z,21.73
2023-02-19T03:28:49.261Z,21.69
2023-02-19T03:29:53.535Z,21.7
2023-02-19T03:30:57.866Z,21.67
2023-02-19T03:32:02.338Z,21.7
2023-02-19T03:33:06.939Z,21.67
2023-02-19T03:34:11.270Z,21.69
2023-02-19T03:35:15.619Z,21.71
2023-02-19T03:36:19.901Z,21.68
2023-02-19T03:37:24.130Z,21.72
2023-02-19T03:38:28.385Z,21.72
2023-02-19T03:39:32.632Z,21.66
2023-02-19T03:40:36.860Z,21.65
2023-02-19T03:41:41.126Z,21.69
2023-02-19T03:42:45.376Z,21.64
2023-02-19T03:43:49.632Z,21.66
2023-02-19T03:44:53.868Z,21.62
2023-02-19T03:45:58.219Z,21.67
2023-02-19T03:47:02.678Z,21.69
2023-02-19T03:48:07.051Z,21.66
2023-02-19T03:49:11.317Z,21.65
2023-02-19T03:50:15.599Z,21.65
2023-02-19T03:51:19.859Z,21.63
2023-02-19T03:52:24.125Z,21.61
2023-02-19T03:53:28.427Z,21.66
2023-02-19T03:54:32.718Z,21.67
2023-02-19T03:55:37.009Z,21.66
2023-02-19T03:56:41.306Z,21.64
2023-02-19T03:57:45.563Z,21.63
2023-02-19T03:58:49.844Z,21.65
2023-02-19T03:59:54.197Z,21.61
2023-02-19T04:00:58.458Z,21.62
2023-02-19T04:02:02.735Z,21.61
2023-02-19T04:03:07.098Z,21.61
2023-02-19T04:04:11.362Z,21.59
2023-02-19T04:05:15.628Z,21.59
2023-02-19T04:06:19.897Z,21.61
2023-02-19T04:07:24.179Z,21.62
2023-02-19T04:08:28.603Z,21.61
2023-02-19T04:09:32.839Z,21.6
2023-02-19T04:10:37.120Z,21.62
2023-02-19T04:11:41.376Z,21.6
2023-02-19T04:12:45.645Z,21.59
2023-02-19T04:13:49.869Z,21.59
2023-02-19T04:14:54.101Z,21.58
2023-02-19T04:15:58.388Z,21.57
2023-02-19T04:17:02.692Z,21.59
2023-02-19T04:18:07.013Z,21.61
2023-02-19T04:19:11.299Z,21.63
2023-02-19T04:20:15.622Z,21.66
2023-02-19T04:21:19.865Z,21.67
2023-02-19T04:22:24.096Z,21.69
2023-02-19T04:23:28.367Z,21.62
2023-02-19T04:24:32.620Z,21.66
2023-02-19T04:25:36.858Z,21.6
2023-02-19T04:26:41.148Z,21.61
2023-02-19T04:27:45.377Z,21.6
2023-02-19T04:28:49.647Z,21.65
2023-02-19T04:29:53.945Z,21.64
2023-02-19T04:30:58.290Z,21.6
2023-02-19T04:32:02.668Z,21.59
2023-02-19T04:33:07.121Z,21.58
2023-02-19T04:34:11.407Z,21.6
2023-02-19T04:35:15.666Z,21.59
2023-02-19T04:36:19.911Z,21.6
2023-02-19T04:37:24.184Z,21.59
2023-02-19T04:38:28.466Z,21.57
2023-02-19T04:39:32.740Z,21.56
2023-02-19T04:40:37.023Z,21.56
2023-02-19T04:41:41.268Z,21.53
2023-02-19T04:42:45.526Z,21.57
2023-02-19T04:43:49.764Z,21.57
2023-02-19T04:44:54.044Z,21.56
2023-02-19T04:45:58.313Z,21.56
2023-02-19T04:47:02.650Z,21.54
2023-02-19T04:48:06.934Z,21.54
2023-02-19T04:49:11.222Z,21.52
2023-02-19T04:50:15.631Z,21.56
2023-02-19T04:51:19.949Z,21.58
2023-02-19T04:52:24.180Z,21.6
2023-02-19T04:53:28.443Z,21.59
2023-02-19T04:54:32.744Z,21.59
2023-02-19T04:55:37.044Z,21.56
2023-02-19T04:56:41.323Z,21.56
2023-02-19T04:57:45.631Z,21.56
2023-02-19T04:58:49.870Z,21.54
2023-02-19T04:59:55.177Z,21.59
2023-02-19T05:00:59.398Z,21.57
2023-02-19T05:02:03.671Z,21.56
2023-02-19T05:03:07.950Z,21.57
2023-02-19T05:04:12.227Z,21.53
2023-02-19T05:05:16.767Z,21.55
2023-02-19T05:06:21.008Z,21.6
2023-02-19T05:07:25.255Z,21.68
2023-02-19T05:08:29.542Z,21.76
2023-02-19T05:09:33.830Z,21.84
2023-02-19T05:10:38.153Z,21.92
2023-02-19T05:11:42.398Z,22.05
2023-02-19T05:12:46.665Z,22.17
2023-02-19T05:13:50.912Z,22.28
2023-02-19T05:14:55.174Z,22.39
2023-02-19T05:15:59.625Z,22.48
2023-02-19T05:17:04.095Z,22.55
2023-02-19T05:18:08.341Z,22.64
2023-02-19T05:19:12.945Z,22.71
2023-02-19T05:20:17.239Z,22.76
2023-02-19T05:21:21.541Z,22.81
2023-02-19T05:22:25.801Z,22.85
2023-02-19T05:23:30.080Z,22.89
2023-02-19T05:24:34.359Z,22.89
2023-02-19T05:25:40.932Z,22.92
2023-02-19T05:26:45.592Z,22.96
2023-02-19T05:27:49.872Z,22.98
2023-02-19T05:28:54.296Z,22.99
2023-02-19T05:29:58.600Z,23
2023-02-19T05:31:03.038Z,22.99
2023-02-19T05:32:07.473Z,22.98
2023-02-19T05:33:11.824Z,22.97
2023-02-19T05:34:16.108Z,22.98
2023-02-19T05:35:20.395Z,22.98
2023-02-19T05:36:24.668Z,22.97
2023-02-19T05:37:28.913Z,22.97
2023-02-19T05:38:33.194Z,22.95
2023-02-19T05:39:37.458Z,22.94
2023-02-19T05:40:41.722Z,22.92
2023-02-19T05:41:45.979Z,22.89
2023-02-19T05:42:50.317Z,22.87
2023-02-19T05:43:54.570Z,22.82
2023-02-19T05:44:58.855Z,22.82
2023-02-19T05:46:03.166Z,22.8
2023-02-19T05:47:07.468Z,22.77
2023-02-19T05:48:11.792Z,22.76
2023-02-19T05:49:16.032Z,22.73
2023-02-19T05:50:20.484Z,22.7
2023-02-19T05:51:24.817Z,22.67
2023-02-19T05:52:29.078Z,22.65
2023-02-19T05:53:33.332Z,22.63
2023-02-19T05:54:37.621Z,22.58
2023-02-19T05:55:41.939Z,22.55
2023-02-19T05:56:46.204Z,22.55
2023-02-19T05:57:50.484Z,22.52
2023-02-19T05:58:54.777Z,22.51
2023-02-19T05:59:59.125Z,22.49
2023-02-19T06:01:03.472Z,22.47
2023-02-19T06:02:07.849Z,22.46
2023-02-19T06:03:12.234Z,22.44
2023-02-19T06:04:16.529Z,22.42
2023-02-19T06:05:20.814Z,22.41
2023-02-19T06:06:25.154Z,22.39
2023-02-19T06:07:29.428Z,22.38
2023-02-19T06:08:33.723Z,22.37
2023-02-19T06:09:37.990Z,22.34
2023-02-19T06:10:42.247Z,22.33
2023-02-19T06:11:46.561Z,22.32
2023-02-19T06:12:50.812Z,22.33
2023-02-19T06:13:55.116Z,22.33
2023-02-19T06:14:59.354Z,22.32
2023-02-19T06:16:03.616Z,22.31
2023-02-19T06:17:08.012Z,22.3
2023-02-19T06:18:12.393Z,22.29
2023-02-19T06:19:16.667Z,22.28
2023-02-19T06:20:20.893Z,22.25
2023-02-19T06:21:27.323Z,22.25
2023-02-19T06:22:31.581Z,22.28
2023-02-19T06:23:35.840Z,22.27
2023-02-19T06:24:40.118Z,22.28
2023-02-19T06:25:44.385Z,22.25
2023-02-19T06:26:48.660Z,22.22
2023-02-19T06:27:53.009Z,22.25
2023-02-19T06:28:57.263Z,22.24
2023-02-19T06:30:01.547Z,22.24
2023-02-19T06:31:06.002Z,22.24
2023-02-19T06:32:10.797Z,22.26
2023-02-19T06:33:15.483Z,22.23
2023-02-19T06:34:19.724Z,22.25
2023-02-19T06:35:24.085Z,22.25
2023-02-19T06:36:29.367Z,22.23
2023-02-19T06:37:33.700Z,22.25
2023-02-19T06:38:38.022Z,22.26
2023-02-19T06:39:42.295Z,22.24
2023-02-19T06:40:46.530Z,22.25
2023-02-19T06:41:50.759Z,22.23
2023-02-19T06:42:55.163Z,22.23
2023-02-19T06:43:59.473Z,22.25
2023-02-19T06:45:03.716Z,22.22
2023-02-19T06:46:07.998Z,22.21
2023-02-19T06:47:12.298Z,22.2
2023-02-19T06:48:16.536Z,22.19
2023-02-19T06:49:20.803Z,22.14
2023-02-19T06:50:25.095Z,22.11
2023-02-19T06:51:29.348Z,22.09
2023-02-19T06:52:33.642Z,22.06
2023-02-19T06:53:37.946Z,22.04
2023-02-19T06:54:42.203Z,22.03
2023-02-19T06:55:46.488Z,22.03
2023-02-19T06:56:50.852Z,22.05
2023-02-19T06:57:55.169Z,22.05
2023-02-19T06:58:59.418Z,22.05
2023-02-19T07:00:03.679Z,22.03
2023-02-19T07:01:08.080Z,22.03
2023-02-19T07:02:13.532Z,22.03
2023-02-19T07:03:17.775Z,22.02
2023-02-19T07:04:25.294Z,22.03
2023-02-19T07:05:29.800Z,22.05
2023-02-19T07:06:34.091Z,22.04
2023-02-19T07:07:38.377Z,22.02
2023-02-19T07:08:42.648Z,22.03
2023-02-19T07:09:46.900Z,22.02
2023-02-19T07:10:51.136Z,22.02
2023-02-19T07:11:55.419Z,22.02
2023-02-19T07:12:59.755Z,22.02
2023-02-19T07:14:04.009Z,22.01
2023-02-19T07:15:08.286Z,22.01
2023-02-19T07:16:12.553Z,22.01
2023-02-19T07:17:16.919Z,22
2023-02-19T07:18:21.184Z,22
2023-02-19T07:19:25.457Z,21.99
2023-02-19T07:20:29.720Z,22
2023-02-19T07:21:34.025Z,21.98
2023-02-19T07:22:38.287Z,21.99
2023-02-19T07:23:42.536Z,21.99
2023-02-19T07:24:47.910Z,21.97
2023-02-19T07:25:52.285Z,21.98
2023-02-19T07:26:56.569Z,21.97
2023-02-19T07:28:00.841Z,21.97
2023-02-19T07:29:05.201Z,21.99
2023-02-19T07:30:09.540Z,22
2023-02-19T07:31:14.353Z,21.98
2023-02-19T07:32:21.815Z,21.96
2023-02-19T07:33:26.057Z,21.95
2023-02-19T07:34:30.320Z,21.97
2023-02-19T07:35:34.576Z,21.97
2023-02-19T07:36:38.878Z,21.99
2023-02-19T07:37:43.173Z,22
2023-02-19T07:38:47.421Z,22.02
2023-02-19T07:39:51.674Z,22.06
2023-02-19T07:40:55.907Z,22.07
2023-02-19T07:42:00.181Z,22.06
2023-02-19T07:43:04.487Z,22.09
2023-02-19T07:44:08.724Z,22.08
2023-02-19T07:45:12.988Z,22.07
2023-02-19T07:46:17.244Z,22.08
2023-02-19T07:47:21.654Z,22.11
2023-02-19T07:48:25.964Z,22.14
2023-02-19T07:49:30.232Z,22.21
2023-02-19T07:50:34.470Z,22.25
2023-02-19T07:51:38.740Z,22.3
2023-02-19T07:52:42.997Z,22.33
2023-02-19T07:53:47.270Z,22.34
2023-02-19T07:54:51.595Z,22.36
2023-02-19T07:55:55.872Z,22.36
2023-02-19T07:57:00.111Z,22.36
2023-02-19T07:58:06.144Z,22.36
2023-02-19T07:59:10.520Z,22.38
2023-02-19T08:00:15.818Z,22.39
2023-02-19T08:01:20.189Z,22.41
2023-02-19T08:02:24.792Z,22.4
2023-02-19T08:03:29.141Z,22.4
2023-02-19T08:04:33.529Z,22.38
2023-02-19T08:05:37.832Z,22.37
2023-02-19T08:06:42.068Z,22.37
2023-02-19T08:07:46.422Z,22.37
2023-02-19T08:08:50.702Z,22.4
2023-02-19T08:09:54.946Z,22.38
2023-02-19T08:10:59.211Z,22.41
2023-02-19T08:12:03.461Z,22.43
2023-02-19T08:13:07.698Z,22.43
2023-02-19T08:14:11.957Z,22.42
2023-02-19T08:15:16.223Z,22.43
2023-02-19T08:16:37.116Z,22.41
2023-02-19T08:17:46.766Z,22.4
2023-02-19T08:18:51.106Z,22.37
2023-02-19T08:19:55.406Z,22.37
2023-02-19T08:20:59.663Z,22.37
2023-02-19T08:22:04.018Z,22.34
2023-02-19T08:23:08.282Z,22.33
2023-02-19T08:24:12.570Z,22.31
2023-02-19T08:25:16.871Z,22.27
2023-02-19T08:26:21.164Z,22.28
2023-02-19T08:27:25.472Z,22.25
2023-02-19T08:28:29.756Z,22.23
2023-02-19T08:29:33.989Z,22.23
2023-02-19T08:30:38.345Z,22.23
2023-02-19T08:31:42.972Z,22.23
2023-02-19T08:32:47.751Z,22.34
2023-02-19T08:33:52.220Z,22.43
2023-02-19T08:34:56.500Z,22.46
2023-02-19T08:36:00.771Z,22.46
2023-02-19T08:37:05.002Z,22.39
2023-02-19T08:38:09.265Z,22.34
2023-02-19T08:39:13.565Z,22.25
2023-02-19T08:40:17.843Z,22.19
2023-02-19T08:41:22.082Z,22.15
2023-02-19T08:42:26.341Z,22.11
2023-02-19T08:43:33.002Z,22.07
2023-02-19T08:44:37.304Z,22.04
2023-02-19T08:45:41.659Z,22.01
2023-02-19T08:46:45.957Z,22.01
2023-02-19T08:47:50.199Z,22.13
2023-02-19T08:48:54.495Z,22.18
2023-02-19T08:49:58.734Z,22.22
2023-02-19T08:51:03.013Z,22.26
2023-02-19T08:52:07.318Z,22.27
2023-02-19T08:53:11.553Z,22.29
2023-02-19T08:54:15.894Z,22.32
2023-02-19T08:55:20.168Z,22.29
2023-02-19T08:56:24.952Z,22.28
2023-02-19T08:57:29.258Z,22.22
2023-02-19T08:58:34.497Z,22.21
2023-02-19T08:59:38.784Z,22.08
2023-02-19T09:00:43.034Z,22.03
2023-02-19T09:01:47.394Z,21.99
2023-02-19T09:02:51.656Z,21.89
2023-02-19T09:03:55.962Z,21.77
2023-02-19T09:05:00.515Z,21.85
2023-02-19T09:06:04.793Z,21.92
2023-02-19T09:07:09.052Z,21.96
2023-02-19T09:08:13.315Z,22
2023-02-19T09:09:17.563Z,22.06
2023-02-19T09:10:21.799Z,22.11
2023-02-19T09:11:26.181Z,22.16
2023-02-19T09:12:30.432Z,22.19
2023-02-19T09:13:34.694Z,22.2
2023-02-19T09:14:38.956Z,22.23
2023-02-19T09:15:43.248Z,22.22
2023-02-19T09:16:47.552Z,22.22
2023-02-19T09:17:51.985Z,22.25
2023-02-19T09:18:56.303Z,22.24
2023-02-19T09:20:00.608Z,22.25
2023-02-19T09:21:04.876Z,22.29
2023-02-19T09:22:09.165Z,22.31
2023-02-19T09:23:13.404Z,22.31
2023-02-19T09:24:17.697Z,22.32
2023-02-19T09:25:22.086Z,22.31
2023-02-19T09:26:26.323Z,22.33
2023-02-19T09:27:30.794Z,22.32
2023-02-19T09:28:35.112Z,22.34
2023-02-19T09:29:39.410Z,22.39
2023-02-19T09:30:43.672Z,22.4
2023-02-19T09:31:48.224Z,22.4
2023-02-19T09:32:52.583Z,22.41
2023-02-19T09:33:56.889Z,22.41
2023-02-19T09:35:01.111Z,22.4
2023-02-19T09:36:05.364Z,22.41
2023-02-19T09:37:09.677Z,22.41
2023-02-19T09:38:13.944Z,22.43
2023-02-19T09:39:18.197Z,22.41
2023-02-19T09:40:22.495Z,22.41
2023-02-19T09:41:26.783Z,22.43
2023-02-19T09:42:31.053Z,22.43
2023-02-19T09:43:35.398Z,22.43
2023-02-19T09:44:39.661Z,22.44
2023-02-19T09:45:43.939Z,22.45
2023-02-19T09:46:48.193Z,22.45
2023-02-19T09:47:52.439Z,22.46
2023-02-19T09:48:56.743Z,22.47
2023-02-19T09:50:01.014Z,22.45
2023-02-19T09:51:05.251Z,22.47
2023-02-19T09:52:09.514Z,22.47
2023-02-19T09:53:13.815Z,22.47
2023-02-19T09:54:18.049Z,22.47
2023-02-19T09:55:22.288Z,22.45
2023-02-19T09:56:26.535Z,22.47
2023-02-19T09:57:31.180Z,22.46
2023-02-19T09:58:35.461Z,22.46
2023-02-19T09:59:39.770Z,22.47
2023-02-19T10:00:44.042Z,22.46
2023-02-19T10:01:48.327Z,22.46
2023-02-19T10:02:52.762Z,22.46
2023-02-19T10:03:57.009Z,22.47
2023-02-19T10:05:01.559Z,22.46
2023-02-19T10:06:05.967Z,22.47
2023-02-19T10:07:13.868Z,22.47
2023-02-19T10:08:18.128Z,22.46
2023-02-19T10:09:22.446Z,22.46
2023-02-19T10:10:26.682Z,22.47
2023-02-19T10:11:30.946Z,22.47
2023-02-19T10:12:35.203Z,22.47
2023-02-19T10:13:39.499Z,22.44
2023-02-19T10:14:43.801Z,22.49
2023-02-19T10:15:48.096Z,22.5
2023-02-19T10:16:52.536Z,22.49
2023-02-19T10:17:56.789Z,22.48
2023-02-19T10:19:01.047Z,22.49
2023-02-19T10:20:05.374Z,22.49
2023-02-19T10:21:09.930Z,22.48
2023-02-19T10:22:15.150Z,22.49
2023-02-19T10:23:19.552Z,22.48
2023-02-19T10:24:23.868Z,22.48
2023-02-19T10:25:28.136Z,22.48
2023-02-19T10:26:32.383Z,22.48
2023-02-19T10:27:36.620Z,22.49
2023-02-19T10:28:40.960Z,22.49
2023-02-19T10:29:45.225Z,22.49
2023-02-19T10:30:49.528Z,22.47
2023-02-19T10:31:54.053Z,22.47
2023-02-19T10:32:58.567Z,22.46
2023-02-19T10:34:02.843Z,22.47
2023-02-19T10:35:07.105Z,22.45
2023-02-19T10:36:11.368Z,22.45
2023-02-19T10:37:15.618Z,22.45
2023-02-19T10:38:19.857Z,22.44
2023-02-19T10:39:24.115Z,22.44
2023-02-19T10:40:28.371Z,22.43
2023-02-19T10:41:32.643Z,22.43
2023-02-19T10:42:36.948Z,22.39
2023-02-19T10:43:41.202Z,22.34
2023-02-19T10:44:45.459Z,22.33
2023-02-19T10:45:49.704Z,22.33
2023-02-19T10:46:54.011Z,22.32
2023-02-19T10:47:58.286Z,22.3
2023-02-19T10:49:02.557Z,22.27
2023-02-19T10:50:06.869Z,22.25
2023-02-19T10:51:11.507Z,22.23
2023-02-19T10:52:16.398Z,22.21
2023-02-19T10:53:20.656Z,22.19
2023-02-19T10:54:24.957Z,22.19
2023-02-19T10:55:29.239Z,22.17
2023-02-19T10:56:33.502Z,22.17
2023-02-19T10:57:37.779Z,22.17
2023-02-19T10:58:42.115Z,22.15
2023-02-19T10:59:46.374Z,22.16
2023-02-19T11:00:50.633Z,22.13
2023-02-19T11:01:54.947Z,22.13
2023-02-19T11:02:59.444Z,22.11
2023-02-19T11:04:03.745Z,22.11
2023-02-19T11:05:08.087Z,22.12
2023-02-19T11:06:12.338Z,22.09
2023-02-19T11:07:16.595Z,22.08
2023-02-19T11:08:20.879Z,22.09
2023-02-19T11:09:25.147Z,22.09
2023-02-19T11:10:29.485Z,22.08
2023-02-19T11:11:33.748Z,22.07
2023-02-19T11:12:38.020Z,22.07
2023-02-19T11:13:42.312Z,22.07
2023-02-19T11:14:46.583Z,22.07
2023-02-19T11:15:51.847Z,22.07
2023-02-19T11:16:56.373Z,22.07
2023-02-19T11:18:00.705Z,22.07
2023-02-19T11:19:04.948Z,22.06
2023-02-19T11:20:09.207Z,22.08
2023-02-19T11:21:13.457Z,22.06
2023-02-19T11:22:17.750Z,22.08
2023-02-19T11:23:22.012Z,22.07
2023-02-19T11:24:26.406Z,22.08
2023-02-19T11:25:30.700Z,22.09
2023-02-19T11:26:34.933Z,22.13
2023-02-19T11:27:39.227Z,22.16
2023-02-19T11:28:43.500Z,22.14
2023-02-19T11:29:47.766Z,22.11
2023-02-19T11:30:52.013Z,22.1
2023-02-19T11:31:56.356Z,22.08
2023-02-19T11:33:00.960Z,22.08
2023-02-19T11:34:05.239Z,22.06
2023-02-19T11:35:09.502Z,22.04
2023-02-19T11:36:13.776Z,22.03
2023-02-19T11:37:18.072Z,22.03
2023-02-19T11:38:22.374Z,22.01
2023-02-19T11:39:26.678Z,22.01
2023-02-19T11:40:30.936Z,21.99
2023-02-19T11:41:35.211Z,22
2023-02-19T11:42:39.607Z,21.96
2023-02-19T11:43:43.880Z,21.99
2023-02-19T11:44:48.116Z,21.94
2023-02-19T11:45:52.382Z,21.94
2023-02-19T11:46:56.709Z,21.93
2023-02-19T11:48:01.007Z,21.9
2023-02-19T11:49:05.268Z,21.91
2023-02-19T11:50:09.527Z,21.9
2023-02-19T11:51:13.882Z,21.91
2023-02-19T11:52:18.168Z,21.89
2023-02-19T11:53:22.493Z,21.88
2023-02-19T11:54:26.736Z,21.88
2023-02-19T11:55:31.027Z,21.86
2023-02-19T11:56:35.315Z,21.84
2023-02-19T11:57:39.573Z,21.85
2023-02-19T11:58:43.946Z,21.84
2023-02-19T11:59:48.182Z,21.82
2023-02-19T12:00:52.444Z,21.81
2023-02-19T12:01:56.732Z,21.82
2023-02-19T12:03:01.202Z,21.79
2023-02-19T12:04:05.495Z,21.84
2023-02-19T12:05:09.879Z,21.85
2023-02-19T12:06:14.274Z,21.8
2023-02-19T12:07:18.528Z,21.77
2023-02-19T12:08:25.669Z,21.78
2023-02-19T12:09:29.952Z,21.8
2023-02-19T12:10:34.224Z,21.74
2023-02-19T12:11:38.486Z,21.73
2023-02-19T12:12:42.747Z,21.75
2023-02-19T12:13:47.007Z,21.74
2023-02-19T12:14:51.318Z,21.73
2023-02-19T12:16:59.940Z,21.7
2023-02-19T12:18:04.253Z,21.7
2023-02-19T12:19:08.570Z,21.68
2023-02-19T12:20:12.881Z,21.66
2023-02-19T12:21:17.460Z,21.64
2023-02-19T12:22:21.701Z,21.62
2023-02-19T12:23:25.977Z,21.66
2023-02-19T12:24:30.231Z,21.6
2023-02-19T12:25:34.839Z,21.65
2023-02-19T12:26:39.182Z,21.66
2023-02-19T12:27:43.451Z,21.64
2023-02-19T12:28:47.719Z,21.6
2023-02-19T12:29:51.965Z,21.6
2023-02-19T12:30:56.248Z,21.64
2023-02-19T12:32:00.790Z,21.62
2023-02-19T12:33:05.246Z,21.57
2023-02-19T12:34:09.550Z,21.57
2023-02-19T12:35:13.793Z,21.58
2023-02-19T12:36:18.074Z,21.61
2023-02-19T12:37:22.379Z,21.58
2023-02-19T12:38:27.628Z,21.64
2023-02-19T12:39:31.902Z,21.68
2023-02-19T12:40:36.176Z,21.67
2023-02-19T12:41:40.425Z,21.68
2023-02-19T12:42:44.718Z,21.71
2023-02-19T12:43:48.987Z,21.67
2023-02-19T12:44:53.318Z,21.66
2023-02-19T12:45:57.618Z,21.68
2023-02-19T12:47:01.967Z,21.69
2023-02-19T12:48:06.217Z,21.67
2023-02-19T12:49:10.519Z,21.66
2023-02-19T12:50:14.803Z,21.68
2023-02-19T12:51:19.055Z,21.7
2023-02-19T12:52:23.294Z,21.68
2023-02-19T12:53:27.559Z,21.68
2023-02-19T12:54:31.831Z,21.73
2023-02-19T12:55:36.118Z,21.7
2023-02-19T12:56:40.363Z,21.71
2023-02-19T12:57:44.629Z,21.7
2023-02-19T12:58:48.880Z,21.74
2023-02-19T12:59:53.168Z,21.72
2023-02-19T13:00:57.401Z,21.74
2023-02-19T13:02:01.807Z,21.73
2023-02-19T13:03:06.281Z,21.72
2023-02-19T13:04:10.578Z,21.7
2023-02-19T13:05:14.813Z,21.72
2023-02-19T13:06:19.320Z,21.7
2023-02-19T13:07:23.676Z,21.68
2023-02-19T13:08:27.931Z,21.7
2023-02-19T13:09:32.179Z,21.73
2023-02-19T13:10:36.438Z,21.71
2023-02-19T13:11:40.734Z,21.72
2023-02-19T13:12:45.010Z,21.71
2023-02-19T13:13:49.250Z,21.71
2023-02-19T13:14:53.502Z,21.72
2023-02-19T13:15:58.205Z,21.72
2023-02-19T13:17:02.559Z,21.72
2023-02-19T13:18:06.968Z,21.75
2023-02-19T13:19:11.204Z,21.75
2023-02-19T13:20:15.468Z,21.73
2023-02-19T13:21:19.723Z,21.72
2023-02-19T13:22:23.953Z,21.68
2023-02-19T13:23:28.344Z,21.67
2023-02-19T13:24:32.583Z,21.65
2023-02-19T13:25:36.952Z,21.63
2023-02-19T13:26:41.250Z,21.63
2023-02-19T13:27:48.527Z,21.65
2023-02-19T13:28:52.842Z,21.67
2023-02-19T13:29:57.155Z,21.67
2023-02-19T13:31:01.521Z,21.68
2023-02-19T13:32:06.330Z,21.67
2023-02-19T13:33:10.961Z,21.64
2023-02-19T13:34:15.244Z,21.64
2023-02-19T13:35:19.500Z,21.65
2023-02-19T13:36:23.761Z,21.62
2023-02-19T13:37:28.124Z,21.6
2023-02-19T13:38:32.371Z,21.6
2023-02-19T13:39:36.636Z,21.65
2023-02-19T13:40:40.977Z,21.63
2023-02-19T13:41:45.336Z,21.61
2023-02-19T13:42:49.608Z,21.59
2023-02-19T13:43:53.870Z,21.6
2023-02-19T13:44:58.665Z,21.61
2023-02-19T13:46:03.176Z,21.59
2023-02-19T13:47:07.700Z,21.6
2023-02-19T13:48:11.967Z,21.61
2023-02-19T13:49:16.239Z,21.6
2023-02-19T13:50:20.555Z,21.6
2023-02-19T13:51:24.890Z,21.62
2023-02-19T13:52:29.153Z,21.6
2023-02-19T13:53:33.712Z,21.6
2023-02-19T13:54:37.976Z,21.59